sensor_id;sensor_type;location;lat;lon;timestamp;P1;durP1;ratioP1;P2;durP2;ratioP2
19111;SDS011;9688;51.906;8.376;2023-10-09T00:01:01;7.80;;;3.70;;
19111;SDS011;9688;51.906;8.376;2023-10-09T00:03:53;10.07;;;4.30;;
19111;SDS011;9688;51.906;8.376;2023-10-09T00:06:40;6.17;;;3.80;;
19111;SDS011;9688;51.906;8.376;2023-10-09T00:09:27;6.20;;;3.40;;
19111;SDS011;9688;51.906;8.376;2023-10-09T00:12:17;8.20;;;4.07;;
19111;SDS011;9688;51.906;8.376;2023-10-09T00:15:06;7.87;;;4.27;;
19111;SDS011;9688;51.906;8.376;2023-10-09T00:17:54;6.87;;;3.70;;
19111;SDS011;9688;51.906;8.376;2023-10-09T00:20:43;6.37;;;4.03;;
19111;SDS011;9688;51.906;8.376;2023-10-09T00:23:37;9.47;;;4.10;;
19111;SDS011;9688;51.906;8.376;2023-10-09T00:26:24;6.90;;;4.40;;
19111;SDS011;9688;51.906;8.376;2023-10-09T00:29:11;10.57;;;4.97;;
19111;SDS011;9688;51.906;8.376;2023-10-09T00:31:59;9.33;;;4.97;;
19111;SDS011;9688;51.906;8.376;2023-10-09T00:34:58;9.23;;;4.60;;
19111;SDS011;9688;51.906;8.376;2023-10-09T00:38:04;9.60;;;4.90;;
19111;SDS011;9688;51.906;8.376;2023-10-09T00:41:06;11.57;;;5.63;;
19111;SDS011;9688;51.906;8.376;2023-10-09T00:43:57;11.87;;;5.53;;
19111;SDS011;9688;51.906;8.376;2023-10-09T00:46:43;10.07;;;5.60;;
19111;SDS011;9688;51.906;8.376;2023-10-09T00:49:31;17.67;;;6.90;;
19111;SDS011;9688;51.906;8.376;2023-10-09T00:52:17;12.90;;;6.17;;
19111;SDS011;9688;51.906;8.376;2023-10-09T00:55:11;15.07;;;6.37;;
19111;SDS011;9688;51.906;8.376;2023-10-09T00:57:58;12.23;;;6.33;;
19111;SDS011;9688;51.906;8.376;2023-10-09T01:00:46;15.90;;;6.60;;
19111;SDS011;9688;51.906;8.376;2023-10-09T01:03:33;14.03;;;5.77;;
19111;SDS011;9688;51.906;8.376;2023-10-09T01:06:18;14.30;;;6.37;;
19111;SDS011;9688;51.906;8.376;2023-10-09T01:09:05;13.23;;;5.87;;
19111;SDS011;9688;51.906;8.376;2023-10-09T01:11:54;19.43;;;6.87;;
19111;SDS011;9688;51.906;8.376;2023-10-09T01:14:48;18.67;;;7.67;;
19111;SDS011;9688;51.906;8.376;2023-10-09T01:17:40;12.40;;;6.20;;
19111;SDS011;9688;51.906;8.376;2023-10-09T01:20:29;15.53;;;7.60;;
19111;SDS011;9688;51.906;8.376;2023-10-09T01:23:22;13.80;;;6.83;;
19111;SDS011;9688;51.906;8.376;2023-10-09T01:26:07;14.90;;;7.43;;
19111;SDS011;9688;51.906;8.376;2023-10-09T01:28:53;14.10;;;7.23;;
19111;SDS011;9688;51.906;8.376;2023-10-09T01:31:42;15.27;;;7.43;;
19111;SDS011;9688;51.906;8.376;2023-10-09T01:34:39;15.90;;;7.60;;
19111;SDS011;9688;51.906;8.376;2023-10-09T01:37:25;16.10;;;7.93;;
19111;SDS011;9688;51.906;8.376;2023-10-09T01:40:15;18.53;;;8.17;;
19111;SDS011;9688;51.906;8.376;2023-10-09T01:43:09;14.23;;;7.60;;
19111;SDS011;9688;51.906;8.376;2023-10-09T01:45:55;19.77;;;8.30;;
19111;SDS011;9688;51.906;8.376;2023-10-09T01:48:41;15.23;;;7.70;;
19111;SDS011;9688;51.906;8.376;2023-10-09T01:51:30;16.47;;;7.90;;
19111;SDS011;9688;51.906;8.376;2023-10-09T01:54:20;17.93;;;7.43;;
19111;SDS011;9688;51.906;8.376;2023-10-09T01:57:22;12.93;;;6.40;;
19111;SDS011;9688;51.906;8.376;2023-10-09T02:00:08;13.27;;;6.87;;
19111;SDS011;9688;51.906;8.376;2023-10-09T02:03:01;17.60;;;7.53;;
19111;SDS011;9688;51.906;8.376;2023-10-09T02:05:48;11.87;;;6.83;;
19111;SDS011;9688;51.906;8.376;2023-10-09T02:08:34;11.97;;;6.70;;
19111;SDS011;9688;51.906;8.376;2023-10-09T02:11:20;15.80;;;7.10;;
19111;SDS011;9688;51.906;8.376;2023-10-09T02:14:21;13.83;;;7.30;;
19111;SDS011;9688;51.906;8.376;2023-10-09T02:17:08;18.73;;;8.73;;
19111;SDS011;9688;51.906;8.376;2023-10-09T02:20:02;19.93;;;8.07;;
19111;SDS011;9688;51.906;8.376;2023-10-09T02:23:01;14.00;;;7.37;;
19111;SDS011;9688;51.906;8.376;2023-10-09T02:25:55;12.70;;;7.30;;
19111;SDS011;9688;51.906;8.376;2023-10-09T02:28:42;15.70;;;8.70;;
19111;SDS011;9688;51.906;8.376;2023-10-09T02:31:29;15.97;;;7.17;;
19111;SDS011;9688;51.906;8.376;2023-10-09T02:34:20;19.93;;;9.43;;
19111;SDS011;9688;51.906;8.376;2023-10-09T02:37:08;17.33;;;8.17;;
19111;SDS011;9688;51.906;8.376;2023-10-09T02:39:57;18.63;;;8.43;;
19111;SDS011;9688;51.906;8.376;2023-10-09T02:42:49;14.10;;;7.67;;
19111;SDS011;9688;51.906;8.376;2023-10-09T02:45:34;24.30;;;9.10;;
19111;SDS011;9688;51.906;8.376;2023-10-09T02:48:32;16.50;;;8.10;;
19111;SDS011;9688;51.906;8.376;2023-10-09T02:51:21;18.13;;;7.43;;
19111;SDS011;9688;51.906;8.376;2023-10-09T02:54:16;19.07;;;8.40;;
19111;SDS011;9688;51.906;8.376;2023-10-09T02:57:11;21.90;;;8.73;;
19111;SDS011;9688;51.906;8.376;2023-10-09T03:00:07;20.30;;;9.63;;
19111;SDS011;9688;51.906;8.376;2023-10-09T03:03:03;18.83;;;9.13;;
19111;SDS011;9688;51.906;8.376;2023-10-09T03:05:52;22.93;;;9.43;;
19111;SDS011;9688;51.906;8.376;2023-10-09T03:08:39;19.93;;;9.63;;
19111;SDS011;9688;51.906;8.376;2023-10-09T03:11:25;21.83;;;11.00;;
19111;SDS011;9688;51.906;8.376;2023-10-09T03:14:12;19.97;;;9.87;;
19111;SDS011;9688;51.906;8.376;2023-10-09T03:16:58;16.57;;;7.93;;
19111;SDS011;9688;51.906;8.376;2023-10-09T03:19:44;18.33;;;8.87;;
19111;SDS011;9688;51.906;8.376;2023-10-09T03:22:32;27.57;;;12.07;;
19111;SDS011;9688;51.906;8.376;2023-10-09T03:25:18;21.70;;;9.20;;
19111;SDS011;9688;51.906;8.376;2023-10-09T03:28:04;19.33;;;9.53;;
19111;SDS011;9688;51.906;8.376;2023-10-09T03:30:51;22.97;;;11.20;;
19111;SDS011;9688;51.906;8.376;2023-10-09T03:33:37;25.23;;;12.37;;
19111;SDS011;9688;51.906;8.376;2023-10-09T03:36:23;27.17;;;12.90;;
19111;SDS011;9688;51.906;8.376;2023-10-09T03:39:12;30.00;;;13.40;;
19111;SDS011;9688;51.906;8.376;2023-10-09T03:42:08;26.77;;;12.53;;
19111;SDS011;9688;51.906;8.376;2023-10-09T03:45:03;30.67;;;14.20;;
19111;SDS011;9688;51.906;8.376;2023-10-09T03:47:57;21.73;;;11.30;;
19111;SDS011;9688;51.906;8.376;2023-10-09T03:50:48;25.73;;;12.07;;
19111;SDS011;9688;51.906;8.376;2023-10-09T03:53:39;26.77;;;12.43;;
19111;SDS011;9688;51.906;8.376;2023-10-09T03:56:26;26.63;;;12.97;;
19111;SDS011;9688;51.906;8.376;2023-10-09T03:59:12;22.07;;;11.50;;
19111;SDS011;9688;51.906;8.376;2023-10-09T04:02:00;25.70;;;12.57;;
19111;SDS011;9688;51.906;8.376;2023-10-09T04:04:49;29.57;;;12.87;;
19111;SDS011;9688;51.906;8.376;2023-10-09T04:07:34;34.27;;;14.87;;
19111;SDS011;9688;51.906;8.376;2023-10-09T04:10:20;29.97;;;14.20;;
19111;SDS011;9688;51.906;8.376;2023-10-09T04:13:30;30.17;;;14.13;;
19111;SDS011;9688;51.906;8.376;2023-10-09T04:16:19;28.77;;;12.93;;
19111;SDS011;9688;51.906;8.376;2023-10-09T04:19:18;33.17;;;15.00;;
19111;SDS011;9688;51.906;8.376;2023-10-09T04:22:06;33.83;;;14.33;;
19111;SDS011;9688;51.906;8.376;2023-10-09T04:24:53;27.60;;;13.83;;
19111;SDS011;9688;51.906;8.376;2023-10-09T04:27:41;33.83;;;15.30;;
19111;SDS011;9688;51.906;8.376;2023-10-09T04:30:30;35.97;;;16.30;;
19111;SDS011;9688;51.906;8.376;2023-10-09T04:33:23;33.47;;;16.53;;
19111;SDS011;9688;51.906;8.376;2023-10-09T04:36:26;41.90;;;18.73;;
19111;SDS011;9688;51.906;8.376;2023-10-09T04:39:20;36.73;;;18.73;;
19111;SDS011;9688;51.906;8.376;2023-10-09T04:42:30;43.07;;;19.40;;
19111;SDS011;9688;51.906;8.376;2023-10-09T04:45:22;40.97;;;19.03;;
19111;SDS011;9688;51.906;8.376;2023-10-09T04:48:27;39.30;;;19.67;;
19111;SDS011;9688;51.906;8.376;2023-10-09T04:51:22;43.77;;;20.20;;
19111;SDS011;9688;51.906;8.376;2023-10-09T04:54:18;36.50;;;19.00;;
19111;SDS011;9688;51.906;8.376;2023-10-09T04:57:23;39.93;;;19.10;;
19111;SDS011;9688;51.906;8.376;2023-10-09T05:00:10;39.60;;;19.43;;
19111;SDS011;9688;51.906;8.376;2023-10-09T05:03:17;37.83;;;19.37;;
19111;SDS011;9688;51.906;8.376;2023-10-09T05:06:13;40.47;;;19.40;;
19111;SDS011;9688;51.906;8.376;2023-10-09T05:09:16;40.07;;;19.77;;
19111;SDS011;9688;51.906;8.376;2023-10-09T05:12:04;46.00;;;18.83;;
19111;SDS011;9688;51.906;8.376;2023-10-09T05:14:59;37.07;;;19.40;;
19111;SDS011;9688;51.906;8.376;2023-10-09T05:17:53;42.40;;;19.80;;
19111;SDS011;9688;51.906;8.376;2023-10-09T05:20:40;42.33;;;19.50;;
19111;SDS011;9688;51.906;8.376;2023-10-09T05:23:42;39.50;;;17.67;;
19111;SDS011;9688;51.906;8.376;2023-10-09T05:26:32;39.43;;;18.20;;
19111;SDS011;9688;51.906;8.376;2023-10-09T05:29:34;40.47;;;19.23;;
19111;SDS011;9688;51.906;8.376;2023-10-09T05:32:32;40.07;;;18.33;;
19111;SDS011;9688;51.906;8.376;2023-10-09T05:35:32;44.87;;;18.53;;
19111;SDS011;9688;51.906;8.376;2023-10-09T05:38:45;38.77;;;18.27;;
19111;SDS011;9688;51.906;8.376;2023-10-09T05:41:43;40.20;;;18.73;;
19111;SDS011;9688;51.906;8.376;2023-10-09T05:44:32;44.57;;;20.53;;
19111;SDS011;9688;51.906;8.376;2023-10-09T05:47:35;37.07;;;19.20;;
19111;SDS011;9688;51.906;8.376;2023-10-09T05:50:27;40.50;;;19.03;;
19111;SDS011;9688;51.906;8.376;2023-10-09T05:53:19;39.47;;;18.63;;
19111;SDS011;9688;51.906;8.376;2023-10-09T05:56:27;41.20;;;19.17;;
19111;SDS011;9688;51.906;8.376;2023-10-09T05:59:30;43.07;;;20.03;;
19111;SDS011;9688;51.906;8.376;2023-10-09T06:02:34;39.50;;;19.77;;
19111;SDS011;9688;51.906;8.376;2023-10-09T06:05:38;45.07;;;20.47;;
19111;SDS011;9688;51.906;8.376;2023-10-09T06:08:35;41.20;;;19.97;;
19111;SDS011;9688;51.906;8.376;2023-10-09T06:11:48;46.47;;;20.43;;
19111;SDS011;9688;51.906;8.376;2023-10-09T06:14:39;49.87;;;22.03;;
19111;SDS011;9688;51.906;8.376;2023-10-09T06:17:33;53.80;;;22.57;;
19111;SDS011;9688;51.906;8.376;2023-10-09T06:20:34;43.37;;;19.87;;
19111;SDS011;9688;51.906;8.376;2023-10-09T06:23:50;39.63;;;19.33;;
19111;SDS011;9688;51.906;8.376;2023-10-09T06:26:54;44.70;;;20.03;;
19111;SDS011;9688;51.906;8.376;2023-10-09T06:29:56;43.80;;;20.67;;
19111;SDS011;9688;51.906;8.376;2023-10-09T06:32:58;39.93;;;19.97;;
19111;SDS011;9688;51.906;8.376;2023-10-09T06:35:49;38.33;;;19.30;;
19111;SDS011;9688;51.906;8.376;2023-10-09T06:38:39;46.20;;;19.60;;
19111;SDS011;9688;51.906;8.376;2023-10-09T06:41:58;38.00;;;17.20;;
19111;SDS011;9688;51.906;8.376;2023-10-09T06:44:53;44.50;;;19.13;;
19111;SDS011;9688;51.906;8.376;2023-10-09T06:47:41;40.33;;;18.10;;
19111;SDS011;9688;51.906;8.376;2023-10-09T06:50:37;32.33;;;16.63;;
19111;SDS011;9688;51.906;8.376;2023-10-09T06:53:36;29.27;;;16.03;;
19111;SDS011;9688;51.906;8.376;2023-10-09T06:56:40;37.07;;;16.83;;
19111;SDS011;9688;51.906;8.376;2023-10-09T06:59:46;36.37;;;16.97;;
19111;SDS011;9688;51.906;8.376;2023-10-09T07:02:58;37.30;;;17.17;;
19111;SDS011;9688;51.906;8.376;2023-10-09T07:06:02;31.77;;;16.27;;
19111;SDS011;9688;51.906;8.376;2023-10-09T07:08:54;27.30;;;15.77;;
19111;SDS011;9688;51.906;8.376;2023-10-09T07:11:59;28.03;;;15.93;;
19111;SDS011;9688;51.906;8.376;2023-10-09T07:14:49;24.57;;;15.20;;
19111;SDS011;9688;51.906;8.376;2023-10-09T07:18:07;28.17;;;15.63;;
19111;SDS011;9688;51.906;8.376;2023-10-09T07:21:07;30.70;;;15.70;;
19111;SDS011;9688;51.906;8.376;2023-10-09T07:23:56;27.70;;;15.43;;
19111;SDS011;9688;51.906;8.376;2023-10-09T07:26:42;34.57;;;16.23;;
19111;SDS011;9688;51.906;8.376;2023-10-09T07:29:37;36.27;;;16.20;;
19111;SDS011;9688;51.906;8.376;2023-10-09T07:32:33;29.43;;;14.97;;
19111;SDS011;9688;51.906;8.376;2023-10-09T07:35:19;28.70;;;14.43;;
19111;SDS011;9688;51.906;8.376;2023-10-09T07:38:26;27.57;;;14.40;;
19111;SDS011;9688;51.906;8.376;2023-10-09T07:41:13;29.57;;;14.93;;
19111;SDS011;9688;51.906;8.376;2023-10-09T07:44:16;28.97;;;14.90;;
19111;SDS011;9688;51.906;8.376;2023-10-09T07:47:19;27.00;;;14.87;;
19111;SDS011;9688;51.906;8.376;2023-10-09T07:50:18;26.97;;;14.87;;
19111;SDS011;9688;51.906;8.376;2023-10-09T07:53:05;30.57;;;15.03;;
19111;SDS011;9688;51.906;8.376;2023-10-09T07:56:11;24.53;;;13.30;;
19111;SDS011;9688;51.906;8.376;2023-10-09T07:58:58;36.33;;;14.90;;
19111;SDS011;9688;51.906;8.376;2023-10-09T08:01:45;30.43;;;14.43;;
19111;SDS011;9688;51.906;8.376;2023-10-09T08:04:39;27.10;;;13.80;;
19111;SDS011;9688;51.906;8.376;2023-10-09T08:07:34;31.13;;;15.00;;
19111;SDS011;9688;51.906;8.376;2023-10-09T08:10:20;24.27;;;13.97;;
19111;SDS011;9688;51.906;8.376;2023-10-09T08:13:24;29.77;;;14.63;;
19111;SDS011;9688;51.906;8.376;2023-10-09T08:16:27;27.53;;;13.80;;
19111;SDS011;9688;51.906;8.376;2023-10-09T08:19:21;27.37;;;14.13;;
19111;SDS011;9688;51.906;8.376;2023-10-09T08:22:16;28.33;;;13.67;;
19111;SDS011;9688;51.906;8.376;2023-10-09T08:25:20;28.53;;;14.83;;
19111;SDS011;9688;51.906;8.376;2023-10-09T08:28:12;30.50;;;13.67;;
19111;SDS011;9688;51.906;8.376;2023-10-09T08:31:27;23.87;;;13.53;;
19111;SDS011;9688;51.906;8.376;2023-10-09T08:34:30;24.53;;;13.13;;
19111;SDS011;9688;51.906;8.376;2023-10-09T08:37:34;30.07;;;13.57;;
19111;SDS011;9688;51.906;8.376;2023-10-09T08:40:21;28.97;;;13.73;;
19111;SDS011;9688;51.906;8.376;2023-10-09T08:43:15;25.10;;;12.90;;
19111;SDS011;9688;51.906;8.376;2023-10-09T08:46:02;28.47;;;14.03;;
19111;SDS011;9688;51.906;8.376;2023-10-09T08:48:51;28.93;;;13.37;;
19111;SDS011;9688;51.906;8.376;2023-10-09T08:51:38;24.55;;;13.00;;
19111;SDS011;9688;51.906;8.376;2023-10-09T08:54:26;27.53;;;12.93;;
19111;SDS011;9688;51.906;8.376;2023-10-09T08:57:15;23.83;;;12.73;;
19111;SDS011;9688;51.906;8.376;2023-10-09T09:00:04;27.80;;;13.20;;
19111;SDS011;9688;51.906;8.376;2023-10-09T09:02:53;28.30;;;14.03;;
19111;SDS011;9688;51.906;8.376;2023-10-09T09:05:39;28.70;;;13.30;;
19111;SDS011;9688;51.906;8.376;2023-10-09T09:08:25;25.17;;;13.33;;
19111;SDS011;9688;51.906;8.376;2023-10-09T09:11:14;26.40;;;13.23;;
19111;SDS011;9688;51.906;8.376;2023-10-09T09:14:03;25.93;;;13.13;;
19111;SDS011;9688;51.906;8.376;2023-10-09T09:16:51;25.37;;;13.47;;
19111;SDS011;9688;51.906;8.376;2023-10-09T09:19:37;24.77;;;13.37;;
19111;SDS011;9688;51.906;8.376;2023-10-09T09:22:23;23.93;;;12.50;;
19111;SDS011;9688;51.906;8.376;2023-10-09T09:25:10;24.17;;;12.63;;
19111;SDS011;9688;51.906;8.376;2023-10-09T09:27:56;24.50;;;12.00;;
19111;SDS011;9688;51.906;8.376;2023-10-09T09:30:55;21.83;;;12.37;;
19111;SDS011;9688;51.906;8.376;2023-10-09T09:33:56;23.87;;;11.87;;
19111;SDS011;9688;51.906;8.376;2023-10-09T09:36:53;24.60;;;12.30;;
19111;SDS011;9688;51.906;8.376;2023-10-09T09:39:41;22.03;;;12.40;;
19111;SDS011;9688;51.906;8.376;2023-10-09T09:42:29;25.60;;;14.13;;
19111;SDS011;9688;51.906;8.376;2023-10-09T09:45:19;25.10;;;13.17;;
19111;SDS011;9688;51.906;8.376;2023-10-09T09:48:11;29.67;;;13.03;;
19111;SDS011;9688;51.906;8.376;2023-10-09T09:51:01;23.30;;;12.27;;
19111;SDS011;9688;51.906;8.376;2023-10-09T09:53:50;26.77;;;12.80;;
19111;SDS011;9688;51.906;8.376;2023-10-09T09:56:40;23.97;;;12.57;;
19111;SDS011;9688;51.906;8.376;2023-10-09T09:59:37;24.17;;;13.00;;
19111;SDS011;9688;51.906;8.376;2023-10-09T10:02:35;27.57;;;13.37;;
19111;SDS011;9688;51.906;8.376;2023-10-09T10:05:24;24.77;;;12.93;;
19111;SDS011;9688;51.906;8.376;2023-10-09T10:08:15;26.10;;;12.20;;
19111;SDS011;9688;51.906;8.376;2023-10-09T10:11:05;26.80;;;12.10;;
19111;SDS011;9688;51.906;8.376;2023-10-09T10:13:57;23.87;;;12.60;;
19111;SDS011;9688;51.906;8.376;2023-10-09T10:17:01;25.97;;;12.43;;
19111;SDS011;9688;51.906;8.376;2023-10-09T10:20:02;25.83;;;13.00;;
19111;SDS011;9688;51.906;8.376;2023-10-09T10:23:16;29.10;;;14.43;;
19111;SDS011;9688;51.906;8.376;2023-10-09T10:26:16;28.10;;;12.77;;
19111;SDS011;9688;51.906;8.376;2023-10-09T10:29:14;24.80;;;13.40;;
19111;SDS011;9688;51.906;8.376;2023-10-09T10:32:17;24.07;;;13.13;;
19111;SDS011;9688;51.906;8.376;2023-10-09T10:35:08;24.17;;;12.60;;
19111;SDS011;9688;51.906;8.376;2023-10-09T10:37:55;27.23;;;13.97;;
19111;SDS011;9688;51.906;8.376;2023-10-09T10:40:57;29.83;;;13.60;;
19111;SDS011;9688;51.906;8.376;2023-10-09T10:43:56;22.77;;;12.90;;
19111;SDS011;9688;51.906;8.376;2023-10-09T10:46:45;26.87;;;13.07;;
19111;SDS011;9688;51.906;8.376;2023-10-09T10:49:35;30.90;;;14.53;;
19111;SDS011;9688;51.906;8.376;2023-10-09T10:52:27;25.73;;;13.77;;
19111;SDS011;9688;51.906;8.376;2023-10-09T10:55:27;26.80;;;13.07;;
19111;SDS011;9688;51.906;8.376;2023-10-09T10:58:28;25.53;;;13.63;;
19111;SDS011;9688;51.906;8.376;2023-10-09T11:01:31;29.67;;;14.13;;
19111;SDS011;9688;51.906;8.376;2023-10-09T11:04:34;28.87;;;13.30;;
19111;SDS011;9688;51.906;8.376;2023-10-09T11:07:26;32.60;;;13.87;;
19111;SDS011;9688;51.906;8.376;2023-10-09T11:10:12;27.60;;;13.67;;
19111;SDS011;9688;51.906;8.376;2023-10-09T11:13:10;28.67;;;14.47;;
19111;SDS011;9688;51.906;8.376;2023-10-09T11:16:38;28.47;;;14.50;;
19111;SDS011;9688;51.906;8.376;2023-10-09T11:19:27;24.37;;;14.20;;
19111;SDS011;9688;51.906;8.376;2023-10-09T11:22:16;25.90;;;13.80;;
19111;SDS011;9688;51.906;8.376;2023-10-09T11:25:13;25.67;;;14.73;;
19111;SDS011;9688;51.906;8.376;2023-10-09T11:28:03;27.27;;;15.87;;
19111;SDS011;9688;51.906;8.376;2023-10-09T11:31:12;30.20;;;15.87;;
19111;SDS011;9688;51.906;8.376;2023-10-09T11:34:01;28.10;;;15.07;;
19111;SDS011;9688;51.906;8.376;2023-10-09T11:36:51;31.83;;;16.40;;
19111;SDS011;9688;51.906;8.376;2023-10-09T11:39:40;29.07;;;16.40;;
19111;SDS011;9688;51.906;8.376;2023-10-09T11:42:36;31.03;;;16.70;;
19111;SDS011;9688;51.906;8.376;2023-10-09T11:45:32;29.13;;;16.03;;
19111;SDS011;9688;51.906;8.376;2023-10-09T11:48:22;32.50;;;15.53;;
19111;SDS011;9688;51.906;8.376;2023-10-09T11:51:13;27.73;;;16.60;;
19111;SDS011;9688;51.906;8.376;2023-10-09T11:54:04;31.43;;;16.63;;
19111;SDS011;9688;51.906;8.376;2023-10-09T11:56:53;25.37;;;16.07;;
19111;SDS011;9688;51.906;8.376;2023-10-09T11:59:39;27.90;;;16.90;;
19111;SDS011;9688;51.906;8.376;2023-10-09T12:02:25;31.70;;;16.37;;
19111;SDS011;9688;51.906;8.376;2023-10-09T12:05:11;28.07;;;16.33;;
19111;SDS011;9688;51.906;8.376;2023-10-09T12:08:03;26.47;;;15.23;;
19111;SDS011;9688;51.906;8.376;2023-10-09T12:10:53;28.90;;;15.63;;
19111;SDS011;9688;51.906;8.376;2023-10-09T12:13:40;30.87;;;16.57;;
19111;SDS011;9688;51.906;8.376;2023-10-09T12:16:26;31.47;;;15.10;;
19111;SDS011;9688;51.906;8.376;2023-10-09T12:19:13;31.67;;;15.87;;
19111;SDS011;9688;51.906;8.376;2023-10-09T12:21:59;32.50;;;15.30;;
19111;SDS011;9688;51.906;8.376;2023-10-09T12:24:49;28.20;;;15.27;;
19111;SDS011;9688;51.906;8.376;2023-10-09T12:27:34;25.87;;;15.23;;
19111;SDS011;9688;51.906;8.376;2023-10-09T12:30:20;30.03;;;15.57;;
19111;SDS011;9688;51.906;8.376;2023-10-09T12:33:11;27.23;;;15.27;;
19111;SDS011;9688;51.906;8.376;2023-10-09T12:36:00;30.67;;;15.60;;
19111;SDS011;9688;51.906;8.376;2023-10-09T12:38:49;31.43;;;15.43;;
19111;SDS011;9688;51.906;8.376;2023-10-09T12:41:39;30.97;;;14.97;;
19111;SDS011;9688;51.906;8.376;2023-10-09T12:44:26;28.60;;;14.73;;
19111;SDS011;9688;51.906;8.376;2023-10-09T12:47:12;30.83;;;16.27;;
19111;SDS011;9688;51.906;8.376;2023-10-09T12:49:57;28.47;;;15.67;;
19111;SDS011;9688;51.906;8.376;2023-10-09T12:52:44;29.07;;;15.63;;
19111;SDS011;9688;51.906;8.376;2023-10-09T12:55:36;26.50;;;14.40;;
19111;SDS011;9688;51.906;8.376;2023-10-09T12:58:25;28.77;;;14.73;;
19111;SDS011;9688;51.906;8.376;2023-10-09T13:01:12;31.73;;;15.00;;
19111;SDS011;9688;51.906;8.376;2023-10-09T13:03:58;27.87;;;14.10;;
19111;SDS011;9688;51.906;8.376;2023-10-09T13:06:45;26.47;;;14.70;;
19111;SDS011;9688;51.906;8.376;2023-10-09T13:09:31;27.40;;;15.30;;
19111;SDS011;9688;51.906;8.376;2023-10-09T13:12:26;35.70;;;15.80;;
19111;SDS011;9688;51.906;8.376;2023-10-09T13:15:16;27.30;;;15.37;;
19111;SDS011;9688;51.906;8.376;2023-10-09T13:18:05;30.60;;;14.27;;
19111;SDS011;9688;51.906;8.376;2023-10-09T13:20:51;26.73;;;15.57;;
19111;SDS011;9688;51.906;8.376;2023-10-09T13:23:37;25.73;;;14.37;;
19111;SDS011;9688;51.906;8.376;2023-10-09T13:26:24;25.57;;;14.60;;
19111;SDS011;9688;51.906;8.376;2023-10-09T13:29:13;25.93;;;15.17;;
19111;SDS011;9688;51.906;8.376;2023-10-09T13:32:08;31.47;;;15.80;;
19111;SDS011;9688;51.906;8.376;2023-10-09T13:34:58;28.00;;;14.47;;
19111;SDS011;9688;51.906;8.376;2023-10-09T13:37:47;27.17;;;15.20;;
19111;SDS011;9688;51.906;8.376;2023-10-09T13:40:38;28.40;;;14.53;;
19111;SDS011;9688;51.906;8.376;2023-10-09T13:43:24;31.20;;;15.77;;
19111;SDS011;9688;51.906;8.376;2023-10-09T13:46:12;28.33;;;14.20;;
19111;SDS011;9688;51.906;8.376;2023-10-09T13:49:03;25.43;;;13.53;;
19111;SDS011;9688;51.906;8.376;2023-10-09T13:51:53;26.77;;;14.13;;
19111;SDS011;9688;51.906;8.376;2023-10-09T13:54:41;25.43;;;14.73;;
19111;SDS011;9688;51.906;8.376;2023-10-09T13:57:27;25.93;;;14.30;;
19111;SDS011;9688;51.906;8.376;2023-10-09T14:00:15;25.83;;;14.30;;
19111;SDS011;9688;51.906;8.376;2023-10-09T14:03:16;29.53;;;14.73;;
19111;SDS011;9688;51.906;8.376;2023-10-09T14:06:09;23.47;;;13.77;;
19111;SDS011;9688;51.906;8.376;2023-10-09T14:08:57;30.77;;;14.27;;
19111;SDS011;9688;51.906;8.376;2023-10-09T14:11:44;24.33;;;13.87;;
19111;SDS011;9688;51.906;8.376;2023-10-09T14:14:30;28.00;;;13.70;;
19111;SDS011;9688;51.906;8.376;2023-10-09T14:17:16;28.60;;;13.83;;
19111;SDS011;9688;51.906;8.376;2023-10-09T14:20:08;26.33;;;14.17;;
19111;SDS011;9688;51.906;8.376;2023-10-09T14:23:10;31.37;;;13.87;;
19111;SDS011;9688;51.906;8.376;2023-10-09T14:26:04;34.07;;;14.13;;
19111;SDS011;9688;51.906;8.376;2023-10-09T14:28:51;29.50;;;14.10;;
19111;SDS011;9688;51.906;8.376;2023-10-09T14:31:37;29.13;;;13.90;;
19111;SDS011;9688;51.906;8.376;2023-10-09T14:34:24;25.83;;;13.73;;
19111;SDS011;9688;51.906;8.376;2023-10-09T14:37:13;29.07;;;13.80;;
19111;SDS011;9688;51.906;8.376;2023-10-09T14:40:01;23.77;;;13.20;;
19111;SDS011;9688;51.906;8.376;2023-10-09T14:42:57;27.80;;;12.77;;
19111;SDS011;9688;51.906;8.376;2023-10-09T14:45:42;24.80;;;12.80;;
19111;SDS011;9688;51.906;8.376;2023-10-09T14:48:30;25.73;;;12.60;;
19111;SDS011;9688;51.906;8.376;2023-10-09T14:51:22;28.73;;;13.53;;
19111;SDS011;9688;51.906;8.376;2023-10-09T14:54:12;38.70;;;13.33;;
19111;SDS011;9688;51.906;8.376;2023-10-09T14:57:03;25.23;;;13.03;;
19111;SDS011;9688;51.906;8.376;2023-10-09T14:59:50;32.23;;;13.40;;
19111;SDS011;9688;51.906;8.376;2023-10-09T15:02:36;24.47;;;13.00;;
19111;SDS011;9688;51.906;8.376;2023-10-09T15:05:23;29.33;;;13.10;;
19111;SDS011;9688;51.906;8.376;2023-10-09T15:08:09;24.60;;;12.87;;
19111;SDS011;9688;51.906;8.376;2023-10-09T15:10:58;22.57;;;12.37;;
19111;SDS011;9688;51.906;8.376;2023-10-09T15:13:47;27.13;;;13.33;;
19111;SDS011;9688;51.906;8.376;2023-10-09T15:16:33;27.53;;;12.80;;
19111;SDS011;9688;51.906;8.376;2023-10-09T15:19:19;24.40;;;13.33;;
19111;SDS011;9688;51.906;8.376;2023-10-09T15:22:13;22.37;;;12.47;;
19111;SDS011;9688;51.906;8.376;2023-10-09T15:24:59;23.63;;;12.53;;
19111;SDS011;9688;51.906;8.376;2023-10-09T15:27:45;24.37;;;12.53;;
19111;SDS011;9688;51.906;8.376;2023-10-09T15:30:32;25.43;;;12.87;;
19111;SDS011;9688;51.906;8.376;2023-10-09T15:33:19;22.23;;;13.43;;
19111;SDS011;9688;51.906;8.376;2023-10-09T15:36:10;30.00;;;13.50;;
19111;SDS011;9688;51.906;8.376;2023-10-09T15:38:57;25.10;;;13.53;;
19111;SDS011;9688;51.906;8.376;2023-10-09T15:41:43;28.03;;;13.73;;
19111;SDS011;9688;51.906;8.376;2023-10-09T15:44:30;27.43;;;13.50;;
19111;SDS011;9688;51.906;8.376;2023-10-09T15:47:19;25.03;;;13.00;;
19111;SDS011;9688;51.906;8.376;2023-10-09T15:50:06;26.80;;;13.80;;
19111;SDS011;9688;51.906;8.376;2023-10-09T15:52:55;27.10;;;13.80;;
19111;SDS011;9688;51.906;8.376;2023-10-09T15:55:44;22.53;;;13.37;;
19111;SDS011;9688;51.906;8.376;2023-10-09T15:58:29;25.80;;;13.87;;
19111;SDS011;9688;51.906;8.376;2023-10-09T16:01:16;32.03;;;13.27;;
19111;SDS011;9688;51.906;8.376;2023-10-09T16:04:05;30.47;;;12.93;;
19111;SDS011;9688;51.906;8.376;2023-10-09T16:06:54;24.30;;;13.37;;
19111;SDS011;9688;51.906;8.376;2023-10-09T16:09:40;32.97;;;14.13;;
19111;SDS011;9688;51.906;8.376;2023-10-09T16:12:26;26.67;;;13.27;;
19111;SDS011;9688;51.906;8.376;2023-10-09T16:15:15;22.30;;;12.70;;
19111;SDS011;9688;51.906;8.376;2023-10-09T16:18:03;24.03;;;13.53;;
19111;SDS011;9688;51.906;8.376;2023-10-09T16:20:55;28.10;;;13.90;;
19111;SDS011;9688;51.906;8.376;2023-10-09T16:23:42;23.50;;;13.47;;
19111;SDS011;9688;51.906;8.376;2023-10-09T16:26:28;27.20;;;13.00;;
19111;SDS011;9688;51.906;8.376;2023-10-09T16:29:22;26.00;;;14.10;;
19111;SDS011;9688;51.906;8.376;2023-10-09T16:32:08;28.20;;;15.07;;
19111;SDS011;9688;51.906;8.376;2023-10-09T16:34:55;25.50;;;13.77;;
19111;SDS011;9688;51.906;8.376;2023-10-09T16:37:43;29.63;;;13.37;;
19111;SDS011;9688;51.906;8.376;2023-10-09T16:40:33;29.10;;;14.33;;
19111;SDS011;9688;51.906;8.376;2023-10-09T16:43:21;27.90;;;15.00;;
19111;SDS011;9688;51.906;8.376;2023-10-09T16:46:10;30.90;;;13.97;;
19111;SDS011;9688;51.906;8.376;2023-10-09T16:48:57;29.83;;;15.37;;
19111;SDS011;9688;51.906;8.376;2023-10-09T16:51:48;31.40;;;15.37;;
19111;SDS011;9688;51.906;8.376;2023-10-09T16:54:35;26.90;;;14.87;;
19111;SDS011;9688;51.906;8.376;2023-10-09T16:57:21;31.40;;;15.67;;
19111;SDS011;9688;51.906;8.376;2023-10-09T17:00:08;31.73;;;14.93;;
19111;SDS011;9688;51.906;8.376;2023-10-09T17:03:03;29.23;;;15.20;;
19111;SDS011;9688;51.906;8.376;2023-10-09T17:05:50;27.43;;;15.20;;